Time;durP1;ratioP1;P1;durP2;ratioP2;P2;SDS_P1;SDS_P2;PMS_P1;PMS_P2;Temp;Humidity;BMP_temperature;BMP_pressure;BME280_temperature;BME280_humidity;BME280_pressure;Samples;Min_cycle;Max_cycle;Signal;HPM_P1;HPM_P2
2022/07/06 00:00:17;;;;;;;16.95;14.10;;;27.10;99.90;;;;;;4906566;29;20558;-92
2022/07/06 00:02:44;;;;;;;19.80;12.65;;;27.00;99.90;;;;;;4920931;29;20064;-92
2022/07/06 00:05:10;;;;;;;16.55;12.82;;;27.00;99.90;;;;;;4888112;29;20130;-92
2022/07/06 00:07:52;;;;;;;17.52;13.27;;;27.00;99.90;;;;;;4918952;29;20028;-92
2022/07/06 00:10:19;;;;;;;19.98;12.60;;;27.00;99.90;;;;;;4919216;29;20040;-91
2022/07/06 00:12:46;;;;;;;16.92;13.05;;;27.00;99.90;;;;;;4903626;29;20036;-90
2022/07/06 00:15:12;;;;;;;22.23;14.18;;;27.00;99.90;;;;;;4919022;29;20040;-91
2022/07/06 00:17:39;;;;;;;19.15;14.70;;;27.10;99.90;;;;;;4888277;29;20020;-91
2022/07/06 00:20:06;;;;;;;18.23;13.10;;;27.10;99.90;;;;;;4903499;29;20036;-92
2022/07/06 00:22:33;;;;;;;17.60;13.82;;;27.10;99.90;;;;;;4918826;29;20024;-93
2022/07/06 00:24:59;;;;;;;15.70;13.10;;;27.10;99.90;;;;;;4918239;29;20036;-92
2022/07/06 00:27:26;;;;;;;16.90;12.57;;;27.10;99.90;;;;;;4903067;29;20052;-92
2022/07/06 00:29:52;;;;;;;14.75;11.52;;;27.10;99.90;;;;;;4918498;29;20039;-91
2022/07/06 00:32:22;;;;;;;15.65;11.20;;;27.20;99.90;;;;;;4903339;29;20462;-92
2022/07/06 00:34:55;;;;;;;16.08;10.98;;;27.20;99.90;;;;;;4918449;29;20036;-92
2022/07/06 00:37:22;;;;;;;16.98;10.48;;;27.20;99.90;;;;;;4918698;29;20092;-90
2022/07/06 00:39:52;;;;;;;14.68;9.77;;;27.20;99.90;;;;;;4902735;29;20084;-90
2022/07/06 00:42:18;;;;;;;16.60;10.05;;;27.10;99.90;;;;;;4902641;29;20028;-92
2022/07/06 00:44:45;;;;;;;12.13;9.60;;;27.10;99.90;;;;;;4901988;29;20494;-92
2022/07/06 00:47:11;;;;;;;12.80;9.43;;;27.10;99.90;;;;;;4902800;29;20039;-92
2022/07/06 00:52:24;;;;;;;12.27;7.80;;;27.00;99.90;;;;;;4907487;29;20518;-92
2022/07/06 00:54:51;;;;;;;12.23;7.70;;;27.00;99.90;;;;;;4903967;29;20048;-92
2022/07/06 00:57:19;;;;;;;10.40;7.13;;;27.00;99.90;;;;;;4907702;29;20048;-92
2022/07/06 00:59:46;;;;;;;13.00;7.00;;;26.90;99.90;;;;;;4921399;29;20057;-92
2022/07/06 01:02:12;;;;;;;9.52;6.38;;;26.80;99.90;;;;;;4904942;29;20032;-92
2022/07/06 01:04:39;;;;;;;12.18;6.30;;;26.70;99.90;;;;;;4904676;29;20115;-92
2022/07/06 01:07:05;;;;;;;10.68;6.55;;;26.70;99.90;;;;;;4904263;29;20021;-90
2022/07/06 01:09:32;;;;;;;12.77;6.85;;;26.60;99.90;;;;;;4903331;29;20032;-92
2022/07/06 01:11:59;;;;;;;11.25;6.88;;;26.50;99.90;;;;;;4904699;29;20087;-91
2022/07/06 01:14:25;;;;;;;13.15;6.90;;;26.60;99.90;;;;;;4920687;29;20029;-92
2022/07/06 01:16:52;;;;;;;11.68;6.25;;;26.60;99.90;;;;;;4902737;29;20036;-92
2022/07/06 01:19:19;;;;;;;8.98;6.85;;;26.60;99.90;;;;;;4904607;29;20028;-90
2022/07/06 01:21:46;;;;;;;10.55;6.18;;;26.50;99.90;;;;;;4923506;29;20088;-91
2022/07/06 01:24:19;;;;;;;12.02;6.40;;;26.50;99.90;;;;;;4907024;29;20048;-92
2022/07/06 01:26:48;;;;;;;10.48;7.13;;;26.50;99.90;;;;;;4919346;29;20036;-90
2022/07/06 01:29:35;;;;;;;8.75;6.85;;;26.50;99.90;;;;;;4902496;29;20036;-91
2022/07/06 01:32:02;;;;;;;15.27;6.85;;;26.40;99.90;;;;;;4903843;29;20063;-91
2022/07/06 01:34:28;;;;;;;13.80;7.32;;;26.40;99.90;;;;;;4903786;29;20035;-92
2022/07/06 01:36:55;;;;;;;10.13;6.97;;;26.40;99.90;;;;;;4888627;29;20036;-92
2022/07/06 01:39:22;;;;;;;9.40;7.38;;;26.40;99.90;;;;;;4906293;29;20515;-91
2022/07/06 01:41:54;;;;;;;11.85;6.93;;;26.40;99.90;;;;;;4918235;29;20028;-90
2022/07/06 01:44:21;;;;;;;8.98;7.30;;;26.30;99.90;;;;;;4886593;29;20123;-93
2022/07/06 01:46:47;;;;;;;11.52;7.15;;;26.30;99.90;;;;;;4901456;29;20031;-92
2022/07/06 01:49:14;;;;;;;12.20;6.80;;;26.30;99.90;;;;;;4903816;29;20036;-91
2022/07/06 01:51:40;;;;;;;12.68;7.00;;;26.30;99.90;;;;;;4868884;29;20056;-90
2022/07/06 01:54:07;;;;;;;9.50;6.93;;;26.30;99.90;;;;;;4878836;29;20472;-90
2022/07/06 01:56:34;;;;;;;10.52;6.18;;;26.30;99.90;;;;;;4878596;29;20056;-90
2022/07/06 01:59:05;;;;;;;7.53;6.05;;;26.30;99.90;;;;;;4882070;29;20053;-92
2022/07/06 02:01:34;;;;;;;9.82;6.10;;;26.30;99.90;;;;;;4862639;29;20050;-91
2022/07/06 02:04:02;;;;;;;14.88;6.85;;;26.30;99.90;;;;;;4860311;29;20452;-90
2022/07/06 02:06:28;;;;;;;11.63;6.00;;;26.30;99.90;;;;;;4861793;29;20070;-90
2022/07/06 02:08:55;;;;;;;12.27;6.70;;;26.30;99.90;;;;;;4863512;29;20556;-90
2022/07/06 02:11:21;;;;;;;9.85;6.53;;;26.20;99.90;;;;;;4862664;29;20046;-92
2022/07/06 02:13:48;;;;;;;11.85;6.43;;;26.20;99.90;;;;;;4845504;29;20057;-91
2022/07/06 02:16:14;;;;;;;12.32;7.10;;;26.20;99.90;;;;;;4860507;29;20053;-91
2022/07/06 02:18:41;;;;;;;17.25;6.80;;;26.20;99.90;;;;;;4860410;29;20515;-91
2022/07/06 02:21:10;;;;;;;13.00;6.43;;;26.20;99.90;;;;;;4860018;29;20098;-91
2022/07/06 02:23:37;;;;;;;9.63;7.43;;;26.20;99.90;;;;;;4897168;29;20040;-91
2022/07/06 02:26:04;;;;;;;11.10;7.13;;;26.20;99.90;;;;;;4885599;29;20033;-91
2022/07/06 02:28:31;;;;;;;12.07;7.40;;;26.20;99.90;;;;;;4869992;29;20060;-90
2022/07/06 02:30:58;;;;;;;10.73;7.45;;;26.20;99.90;;;;;;4885616;29;20200;-90
2022/07/06 02:33:29;;;;;;;15.32;8.35;;;26.10;99.90;;;;;;4871670;29;20037;-91
2022/07/06 02:35:56;;;;;;;10.63;7.80;;;26.10;99.90;;;;;;4887214;29;20466;-92
2022/07/06 02:38:22;;;;;;;14.88;8.90;;;26.00;99.90;;;;;;4871204;29;20160;-90
2022/07/06 02:40:49;;;;;;;14.55;8.48;;;26.00;99.90;;;;;;4887053;29;20052;-92
2022/07/06 02:43:16;;;;;;;12.85;8.90;;;26.00;99.90;;;;;;4871012;29;20025;-91
2022/07/06 02:45:43;;;;;;;14.27;8.70;;;26.00;99.90;;;;;;4869410;29;20041;-92
2022/07/06 02:48:14;;;;;;;11.07;8.07;;;26.00;99.90;;;;;;4870702;29;20069;-90
2022/07/06 02:50:40;;;;;;;14.23;9.25;;;25.90;99.90;;;;;;4885710;29;20064;-92
2022/07/06 02:53:07;;;;;;;15.50;9.35;;;25.90;99.90;;;;;;4870877;29;20479;-91
2022/07/06 02:55:34;;;;;;;15.60;9.68;;;25.80;99.90;;;;;;4886037;29;20472;-91
2022/07/06 02:58:03;;;;;;;16.05;9.35;;;25.80;99.90;;;;;;4883785;29;20532;-91
2022/07/06 03:00:31;;;;;;;16.77;9.65;;;25.90;99.90;;;;;;4906483;29;20064;-92
2022/07/06 03:02:58;;;;;;;17.60;10.27;;;25.90;99.90;;;;;;4906973;29;20032;-91
2022/07/06 03:05:55;;;;;;;13.95;9.80;;;25.80;99.90;;;;;;4920161;29;20036;-91
2022/07/06 03:08:23;;;;;;;17.02;9.55;;;25.90;99.90;;;;;;4920471;29;20034;-90
2022/07/06 03:10:50;;;;;;;14.48;9.55;;;25.90;99.90;;;;;;4905241;29;20031;-91
2022/07/06 03:13:17;;;;;;;15.55;10.38;;;25.90;99.90;;;;;;4923405;28;20012;-91
2022/07/06 03:15:45;;;;;;;23.63;10.27;;;26.00;99.90;;;;;;4911433;29;20035;-92
2022/07/06 03:18:12;;;;;;;16.33;10.15;;;26.00;99.90;;;;;;4921281;29;20035;-91
2022/07/06 03:20:39;;;;;;;17.45;10.27;;;26.00;99.90;;;;;;4906785;29;20390;-91
2022/07/06 03:23:12;;;;;;;21.35;10.23;;;26.00;99.90;;;;;;4908305;29;20032;-92
2022/07/06 03:25:39;;;;;;;21.75;9.77;;;26.00;99.90;;;;;;4908495;29;20052;-92
2022/07/06 03:28:06;;;;;;;22.92;10.45;;;26.00;99.90;;;;;;4907489;29;20024;-92
2022/07/06 03:30:36;;;;;;;22.08;10.77;;;26.00;99.90;;;;;;4922106;29;20032;-90
2022/07/06 03:33:07;;;;;;;17.42;9.75;;;26.00;99.90;;;;;;4922477;29;20032;-92
2022/07/06 03:35:34;;;;;;;25.55;10.73;;;26.10;99.90;;;;;;4905956;29;20043;-91
2022/07/06 03:38:08;;;;;;;19.20;9.77;;;26.10;99.90;;;;;;4921035;29;20103;-92
2022/07/06 03:40:36;;;;;;;19.63;11.00;;;26.10;99.90;;;;;;4905743;29;20212;-91
2022/07/06 03:43:02;;;;;;;20.75;10.77;;;26.10;99.90;;;;;;4922244;29;20868;-90
2022/07/06 03:45:33;;;;;;;22.10;8.32;;;26.10;99.90;;;;;;4906242;29;20040;-91
2022/07/06 03:48:02;;;;;;;19.15;7.95;;;26.10;99.90;;;;;;4907660;29;20032;-92
2022/07/06 03:50:31;;;;;;;19.45;9.15;;;26.20;99.90;;;;;;4908123;29;20394;-91
2022/07/06 03:52:58;;;;;;;21.73;8.48;;;26.20;99.90;;;;;;4906550;29;20104;-92
2022/07/06 03:55:25;;;;;;;14.10;8.18;;;26.20;99.90;;;;;;4906187;29;20056;-94
2022/07/06 03:57:57;;;;;;;17.42;8.15;;;26.30;99.90;;;;;;4906444;29;20028;-91
2022/07/06 04:00:24;;;;;;;27.90;8.23;;;26.30;99.90;;;;;;4906227;29;20028;-91
2022/07/06 04:03:02;;;;;;;19.45;8.35;;;26.30;99.90;;;;;;4921980;29;20032;-92
2022/07/06 04:05:34;;;;;;;22.10;8.02;;;26.20;99.90;;;;;;4892954;29;20114;-93
2022/07/06 04:08:01;;;;;;;20.05;7.90;;;26.30;99.90;;;;;;4907102;29;20036;-90
2022/07/06 04:10:43;;;;;;;16.50;7.25;;;26.30;99.90;;;;;;4910429;29;20031;-91
2022/07/06 04:13:09;;;;;;;16.95;7.18;;;26.40;99.90;;;;;;4893559;29;20051;-91
2022/07/06 04:15:37;;;;;;;15.82;7.20;;;26.50;99.90;;;;;;4924728;29;20061;-92
2022/07/06 04:18:12;;;;;;;14.80;6.80;;;26.60;99.90;;;;;;4910673;29;20091;-92
2022/07/06 04:20:46;;;;;;;20.25;6.28;;;26.70;99.90;;;;;;4910287;29;20032;-91
2022/07/06 04:23:14;;;;;;;21.15;6.40;;;26.70;99.90;;;;;;4903370;29;20040;-91
2022/07/06 04:25:40;;;;;;;20.75;7.05;;;26.60;99.90;;;;;;4905964;29;20039;-91
2022/07/06 04:28:08;;;;;;;14.38;5.72;;;26.70;99.90;;;;;;4920466;29;20032;-91
2022/07/06 04:30:37;;;;;;;18.73;6.07;;;26.70;99.90;;;;;;4907018;29;20028;-91
2022/07/06 04:33:07;;;;;;;18.58;5.97;;;26.80;99.90;;;;;;4922246;29;20032;-91
2022/07/06 04:35:36;;;;;;;11.85;5.30;;;26.80;99.90;;;;;;4922042;29;20032;-90
2022/07/06 04:38:03;;;;;;;16.70;5.57;;;27.00;99.90;;;;;;4902283;29;20104;-90
2022/07/06 04:40:30;;;;;;;21.05;4.93;;;27.00;99.90;;;;;;4908163;29;20032;-92
2022/07/06 04:43:01;;;;;;;13.27;5.00;;;27.50;99.90;;;;;;4911410;29;20024;-91
2022/07/06 04:45:36;;;;;;;17.27;5.72;;;28.40;99.90;;;;;;4911363;29;20044;-92
2022/07/06 04:48:05;;;;;;;11.07;4.55;;;29.10;99.90;;;;;;4924597;29;20055;-90
2022/07/06 04:50:32;;;;;;;18.55;5.13;;;29.40;99.90;;;;;;4908234;29;20419;-91
2022/07/06 04:53:02;;;;;;;16.35;4.40;;;29.50;99.90;;;;;;4926032;29;20071;-90
2022/07/06 04:55:31;;;;;;;18.63;3.72;;;30.00;99.90;;;;;;4909248;29;20078;-91
2022/07/06 04:57:58;;;;;;;15.05;3.90;;;30.50;99.90;;;;;;4907512;29;20033;-90
2022/07/06 05:00:31;;;;;;;17.70;4.72;;;30.50;99.90;;;;;;4923280;29;20062;-90
2022/07/06 05:03:01;;;;;;;10.13;3.50;;;30.40;99.90;;;;;;4929527;29;20068;-92
2022/07/06 05:05:28;;;;;;;16.48;4.10;;;29.60;99.90;;;;;;4921957;29;20044;-93
2022/07/06 05:07:55;;;;;;;13.80;3.63;;;29.10;99.90;;;;;;4917606;29;20072;-90
2022/07/06 05:10:22;;;;;;;11.85;3.83;;;28.80;99.90;;;;;;4904653;29;20047;-92
2022/07/06 05:12:55;;;;;;;11.82;3.38;;;28.40;99.90;;;;;;4904903;29;20092;-93
2022/07/06 05:15:25;;;;;;;20.20;5.10;;;28.40;99.90;;;;;;4904006;29;20072;-93
2022/07/06 05:17:53;;;;;;;13.82;4.07;;;28.40;99.90;;;;;;4902997;29;20029;-91
2022/07/06 05:20:20;;;;;;;16.25;3.88;;;28.40;99.90;;;;;;4903082;29;20043;-90
2022/07/06 05:22:49;;;;;;;16.70;3.33;;;29.40;99.90;;;;;;4903876;29;20029;-91
2022/07/06 05:25:19;;;;;;;24.33;4.38;;;29.80;99.90;;;;;;4903139;29;20041;-92
2022/07/06 05:27:46;;;;;;;17.10;4.07;;;30.40;99.90;;;;;;4901979;29;20052;-93
2022/07/06 05:30:22;;;;;;;14.93;4.13;;;30.50;99.90;;;;;;4904460;29;20033;-93
2022/07/06 05:32:50;;;;;;;17.85;4.22;;;30.60;99.90;;;;;;4905354;29;20043;-91
2022/07/06 05:35:21;;;;;;;11.73;3.50;;;31.10;99.90;;;;;;4909233;29;20522;-89
2022/07/06 05:37:50;;;;;;;19.83;4.78;;;31.00;99.90;;;;;;4871310;29;20057;-91
2022/07/06 05:40:23;;;;;;;12.68;3.90;;;31.60;99.90;;;;;;4871918;29;20029;-91
2022/07/06 05:42:49;;;;;;;17.83;3.83;;;31.90;99.90;;;;;;4873567;29;20041;-92
2022/07/06 05:45:31;;;;;;;12.98;3.58;;;31.60;99.90;;;;;;4873508;29;20041;-91
2022/07/06 05:50:47;;;;;;;8.60;3.53;;;32.10;99.90;;;;;;4867318;29;20040;-92
2022/07/06 05:53:14;;;;;;;12.80;3.65;;;31.70;99.90;;;;;;4870106;29;20041;-91
2022/07/06 05:55:40;;;;;;;10.68;3.58;;;31.60;99.90;;;;;;4871585;29;20113;-91
2022/07/06 05:58:18;;;;;;;9.90;3.80;;;31.90;99.90;;;;;;4871244;29;20113;-91
2022/07/06 06:00:47;;;;;;;9.55;3.03;;;32.50;99.90;;;;;;4856737;29;20048;-93
2022/07/06 06:03:17;;;;;;;22.10;3.97;;;32.50;99.90;;;;;;4875126;29;20040;-90
2022/07/06 06:05:56;;;;;;;12.52;3.70;;;32.50;99.90;;;;;;4871809;29;20036;-89
2022/07/06 06:08:26;;;;;;;15.88;3.15;;;33.30;99.90;;;;;;4887419;29;20040;-90
2022/07/06 06:11:14;;;;;;;15.32;4.18;;;33.40;99.90;;;;;;4894438;29;20072;-90
2022/07/06 06:13:41;;;;;;;13.95;4.10;;;32.80;99.90;;;;;;4926920;29;20486;-90
2022/07/06 06:16:20;;;;;;;12.45;4.28;;;32.80;99.90;;;;;;4911160;29;20028;-92
2022/07/06 06:18:50;;;;;;;8.45;3.63;;;33.00;99.90;;;;;;4933501;23;20509;-93
2022/07/06 06:21:16;;;;;;;13.80;3.50;;;33.30;99.90;;;;;;4905905;29;20549;-88
2022/07/06 06:23:44;;;;;;;13.88;3.80;;;33.40;99.90;;;;;;4906270;29;20043;-91
2022/07/06 06:26:11;;;;;;;13.05;3.83;;;33.60;99.90;;;;;;4904661;29;20036;-90
2022/07/06 06:28:37;;;;;;;20.60;4.30;;;33.30;99.90;;;;;;4904664;29;20112;-92
2022/07/06 06:31:04;;;;;;;13.57;4.05;;;32.70;99.90;;;;;;4916825;29;20041;-95
2022/07/06 06:52:51;;;;;;;;;;;;;;;;;;;;;
2022/07/06 06:55:43;;;;;;;14.25;4.35;;;33.90;99.90;;;;;;4911918;29;20099;-93
2022/07/06 07:02:55;;;;;;;11.98;4.68;;;33.70;99.90;;;;;;4934358;28;20076;-93
2022/07/06 07:05:24;;;;;;;8.80;4.15;;;33.60;99.90;;;;;;5072941;23;20043;-93
2022/07/06 07:07:51;;;;;;;12.15;4.45;;;33.80;99.90;;;;;;4948550;28;20493;-92
2022/07/06 07:10:18;;;;;;;11.93;3.38;;;33.60;99.90;;;;;;4928986;29;20031;-93
2022/07/06 07:12:47;;;;;;;13.23;4.35;;;33.90;99.90;;;;;;4945020;29;20032;-93
2022/07/06 07:15:16;;;;;;;16.10;3.85;;;34.10;99.90;;;;;;4928781;29;20055;-94
2022/07/06 07:17:43;;;;;;;12.20;4.30;;;34.10;99.90;;;;;;4948995;29;20035;-92
2022/07/06 07:20:13;;;;;;;16.10;4.07;;;34.00;99.90;;;;;;4935330;29;20038;-92
2022/07/06 07:22:40;;;;;;;15.25;5.20;;;33.90;99.90;;;;;;4934774;29;20035;-92
2022/07/06 07:25:08;;;;;;;17.20;4.38;;;33.70;99.90;;;;;;4939166;29;20043;-92
2022/07/06 07:28:07;;;;;;;13.75;5.07;;;33.70;99.90;;;;;;4918858;29;20043;-93
2022/07/06 07:30:34;;;;;;;11.68;4.20;;;33.70;99.90;;;;;;4893289;29;20045;-92
2022/07/06 07:33:00;;;;;;;13.07;4.13;;;34.00;99.90;;;;;;4852162;29;20044;-92
2022/07/06 07:35:27;;;;;;;13.80;4.50;;;33.90;99.90;;;;;;4851141;29;20045;-92
2022/07/06 07:37:54;;;;;;;10.88;3.90;;;34.00;99.90;;;;;;4849621;29;20060;-92
2022/07/06 07:40:21;;;;;;;8.48;4.32;;;34.50;99.90;;;;;;4849360;29;20064;-92
2022/07/06 07:42:48;;;;;;;10.18;4.00;;;34.50;99.90;;;;;;4849578;29;20141;-92
2022/07/06 07:45:15;;;;;;;12.32;4.10;;;34.80;99.90;;;;;;4828150;29;20500;-92
2022/07/06 07:47:51;;;;;;;13.27;4.68;;;34.80;99.90;;;;;;4813171;29;20045;-92
2022/07/06 07:50:26;;;;;;;11.23;4.80;;;34.10;99.90;;;;;;4812499;29;20061;-92
2022/07/06 07:52:53;;;;;;;9.93;4.07;;;34.00;99.90;;;;;;4813174;29;20038;-91
2022/07/06 07:55:20;;;;;;;7.90;3.88;;;34.10;99.90;;;;;;4811975;29;20481;-93
2022/07/06 07:57:46;;;;;;;14.90;5.13;;;34.30;99.90;;;;;;4812717;29;20046;-92
2022/07/06 08:00:13;;;;;;;11.48;3.95;;;34.20;99.90;;;;;;4813530;29;20073;-92
2022/07/06 08:02:40;;;;;;;11.68;4.75;;;33.90;99.90;;;;;;4814727;29;20038;-93
2022/07/06 08:05:15;;;;;;;13.05;4.60;;;34.00;99.90;;;;;;4829335;29;20531;-92
2022/07/06 09:06:27;;;;;;;9.15;5.10;;;35.10;99.90;;;;;;5113226;23;20100;-93
2022/07/06 09:09:07;;;;;;;12.75;5.57;;;35.60;99.90;;;;;;5107738;23;20059;-70
2022/07/06 09:11:38;;;;;;;10.98;4.82;;;35.10;99.90;;;;;;4909307;29;20039;-69
2022/07/06 09:14:07;;;;;;;10.52;5.25;;;34.80;99.90;;;;;;4907951;29;20059;-71
2022/07/06 09:16:33;;;;;;;6.50;5.55;;;34.50;99.90;;;;;;4907880;29;20482;-71
2022/07/06 09:19:00;;;;;;;9.50;5.00;;;34.70;99.90;;;;;;4913996;29;20440;-71
2022/07/06 09:21:32;;;;;;;12.00;5.35;;;34.80;99.90;;;;;;4925939;29;20107;-70
2022/07/06 09:24:05;;;;;;;14.02;5.50;;;35.00;99.90;;;;;;4922969;29;20028;-71
2022/07/06 09:26:31;;;;;;;9.40;6.05;;;35.30;99.90;;;;;;4924091;29;20020;-70
2022/07/06 09:28:59;;;;;;;12.82;6.47;;;35.20;99.90;;;;;;4925369;29;20043;-72
2022/07/06 09:31:26;;;;;;;9.52;6.32;;;35.20;99.90;;;;;;4925743;29;20083;-71
2022/07/06 09:34:09;;;;;;;13.98;5.57;;;35.40;99.90;;;;;;4923926;29;20474;-72
2022/07/06 09:36:49;;;;;;;10.40;5.87;;;35.20;99.90;;;;;;4922406;29;20032;-71
2022/07/06 09:39:22;;;;;;;13.77;6.72;;;34.90;99.90;;;;;;4921693;29;20036;-71
2022/07/06 09:41:51;;;;;;;11.18;6.70;;;34.90;99.90;;;;;;4923720;29;20039;-72
2022/07/06 09:44:28;;;;;;;12.80;6.88;;;35.00;99.90;;;;;;4925256;29;20123;-71
2022/07/06 09:47:00;;;;;;;16.55;7.15;;;35.10;99.90;;;;;;4921872;29;20055;-71
2022/07/06 09:49:27;;;;;;;14.23;6.70;;;34.80;99.90;;;;;;4924085;29;20028;-70
2022/07/06 09:52:04;;;;;;;14.73;5.55;;;34.40;99.90;;;;;;4925881;29;20079;-71
2022/07/06 09:54:32;;;;;;;12.93;6.57;;;34.10;99.90;;;;;;4925781;29;20023;-71
2022/07/06 09:56:58;;;;;;;11.90;6.35;;;33.90;99.90;;;;;;4924469;29;20498;-71
2022/07/06 09:59:27;;;;;;;13.80;6.38;;;33.70;99.90;;;;;;4924332;29;20035;-70
2022/07/06 10:01:58;;;;;;;14.90;6.88;;;33.80;99.90;;;;;;4925809;29;20028;-70
2022/07/06 10:04:27;;;;;;;10.77;6.68;;;34.00;99.90;;;;;;4923260;29;20036;-70
2022/07/06 10:06:55;;;;;;;11.02;7.00;;;34.20;99.90;;;;;;4921573;29;20089;-70
2022/07/06 10:09:24;;;;;;;12.02;7.63;;;34.60;99.90;;;;;;4920212;29;20044;-70
2022/07/06 10:11:53;;;;;;;16.02;7.68;;;34.50;99.90;;;;;;4916593;29;20036;-73
2022/07/06 10:14:23;;;;;;;9.55;7.40;;;34.10;99.90;;;;;;4916487;29;20067;-71
2022/07/06 10:16:51;;;;;;;17.38;7.43;;;33.70;99.90;;;;;;4916807;29;20039;-71
2022/07/06 10:19:21;;;;;;;18.98;7.40;;;33.80;99.90;;;;;;4918772;29;20059;-72
2022/07/06 10:21:52;;;;;;;14.38;7.57;;;34.00;99.90;;;;;;4919763;29;20070;-71
2022/07/06 10:24:20;;;;;;;12.68;7.18;;;34.10;99.90;;;;;;4919760;29;20032;-74
2022/07/06 10:26:48;;;;;;;14.05;7.93;;;34.10;99.90;;;;;;4919753;29;20486;-72
2022/07/06 10:29:15;;;;;;;14.70;8.15;;;34.10;99.90;;;;;;4919326;29;20032;-73
2022/07/06 10:31:47;;;;;;;11.18;8.10;;;34.00;99.90;;;;;;4902796;29;20118;-68
2022/07/06 10:34:15;;;;;;;14.93;8.85;;;34.10;99.90;;;;;;4919464;29;20044;-74
2022/07/06 10:36:44;;;;;;;19.08;8.77;;;33.80;99.90;;;;;;4919576;29;20016;-74
2022/07/06 10:41:58;;;;;;;13.40;8.10;;;33.70;99.90;;;;;;4919516;29;20028;-74
2022/07/06 10:44:27;;;;;;;8.32;7.45;;;33.70;99.90;;;;;;4919424;29;20454;-75
2022/07/06 10:46:56;;;;;;;19.17;8.80;;;33.70;99.90;;;;;;4919369;29;20028;-72
2022/07/06 10:49:28;;;;;;;12.82;7.85;;;33.90;99.90;;;;;;4919271;29;20031;-71
2022/07/06 10:51:57;;;;;;;9.20;7.70;;;33.90;99.90;;;;;;4919277;29;20498;-70
2022/07/06 10:54:24;;;;;;;8.70;7.75;;;33.90;99.90;;;;;;4919219;29;20036;-72
2022/07/06 10:56:52;;;;;;;11.23;8.05;;;33.90;99.90;;;;;;4919202;29;20035;-71
2022/07/06 10:59:23;;;;;;;11.23;6.38;;;34.00;99.90;;;;;;4919141;29;20024;-70
2022/07/06 11:02:16;;;;;;;10.10;6.93;;;34.00;99.90;;;;;;4919172;29;20043;-67
2022/07/06 11:04:45;;;;;;;13.20;7.40;;;33.70;99.90;;;;;;4919100;29;20099;-69
2022/07/06 11:07:13;;;;;;;13.88;7.72;;;33.70;99.90;;;;;;4919041;29;20029;-72
2022/07/06 11:09:47;;;;;;;12.18;8.43;;;34.10;99.90;;;;;;4918903;29;20562;-69
2022/07/06 11:12:20;;;;;;;15.75;8.77;;;34.40;99.90;;;;;;4919020;29;20423;-70
2022/07/06 11:14:49;;;;;;;10.18;8.15;;;34.40;99.90;;;;;;4919047;29;20043;-69
2022/07/06 11:17:16;;;;;;;10.77;7.72;;;34.40;99.90;;;;;;4918966;29;20020;-69
2022/07/06 11:20:12;;;;;;;11.77;7.47;;;34.20;99.90;;;;;;4918281;29;20032;-69
2022/07/06 15:14:40;;;;;;;11.18;10.13;;;32.60;99.90;;;;;;5566217;23;20073;-92
2022/07/06 15:22:00;;;;;;;10.30;9.25;;;32.50;99.90;;;;;;4859654;23;20072;-93
2022/07/06 15:30:44;;;;;;;15.20;10.05;;;33.00;99.90;;;;;;4920569;29;20055;-93
2022/07/06 15:33:13;;;;;;;11.00;10.18;;;32.90;99.90;;;;;;4883683;29;20036;-92
2022/07/06 15:35:40;;;;;;;10.57;9.77;;;32.70;99.90;;;;;;4895543;29;20037;-91
2022/07/06 15:38:07;;;;;;;10.88;9.95;;;32.70;99.90;;;;;;4899587;29;20028;-92
2022/07/06 15:40:40;;;;;;;10.30;9.60;;;32.70;99.90;;;;;;4873461;29;20044;-93
2022/07/06 15:43:10;;;;;;;14.18;10.52;;;32.60;99.90;;;;;;4862928;29;20042;-93
2022/07/06 15:45:37;;;;;;;10.60;9.65;;;32.60;99.90;;;;;;4850268;29;20113;-91
2022/07/06 15:48:13;;;;;;;16.35;10.75;;;32.70;99.90;;;;;;4848503;29;20030;-94
2022/07/06 15:50:42;;;;;;;11.10;10.05;;;32.60;99.90;;;;;;4864033;29;20085;-94
2022/07/06 15:53:12;;;;;;;11.68;10.48;;;32.50;99.90;;;;;;4846867;29;20069;-92
2022/07/06 15:55:39;;;;;;;13.02;10.30;;;32.40;99.90;;;;;;4841235;29;20052;-91
2022/07/06 15:58:11;;;;;;;11.25;10.30;;;32.20;99.90;;;;;;4842587;29;20030;-93
2022/07/06 16:00:39;;;;;;;10.48;9.80;;;32.20;99.90;;;;;;4848207;29;20499;-92
2022/07/06 16:03:15;;;;;;;10.68;9.75;;;32.40;99.90;;;;;;4847792;29;20026;-93
2022/07/06 16:05:42;;;;;;;10.73;9.82;;;32.40;99.90;;;;;;4848646;29;20124;-92
2022/07/06 16:08:09;;;;;;;10.88;9.80;;;32.50;99.90;;;;;;4843310;29;20009;-91
2022/07/06 16:10:37;;;;;;;12.23;9.50;;;32.30;99.90;;;;;;4850051;29;20037;-91
2022/07/06 16:13:09;;;;;;;13.70;9.93;;;32.10;99.90;;;;;;4876077;29;20033;-93
2022/07/06 16:15:50;;;;;;;11.65;10.40;;;31.90;99.90;;;;;;4860816;29;20130;-92
2022/07/06 16:18:17;;;;;;;11.20;10.13;;;31.60;99.90;;;;;;4861510;29;20045;-93
2022/07/06 16:20:44;;;;;;;10.65;9.65;;;31.60;99.90;;;;;;4847111;29;20085;-92
2022/07/06 16:23:12;;;;;;;10.90;10.00;;;31.60;99.90;;;;;;4848563;29;20037;-93
2022/07/06 16:35:08;;;;;;;9.40;8.63;;;31.10;99.90;;;;;;4967780;23;20318;-94
2022/07/06 16:48:31;;;;;;;10.27;8.55;;;30.90;99.90;;;;;;4849773;29;20054;-92
2022/07/06 16:51:05;;;;;;;9.40;8.60;;;30.90;99.90;;;;;;4835865;29;20063;-91
2022/07/06 16:53:32;;;;;;;13.80;8.82;;;30.80;99.90;;;;;;4822454;29;20112;-93
2022/07/06 16:56:05;;;;;;;8.98;8.07;;;30.90;99.90;;;;;;4817705;29;20057;-90
2022/07/06 16:58:38;;;;;;;11.05;7.45;;;30.80;99.90;;;;;;4833369;29;20030;-91
2022/07/06 17:01:05;;;;;;;11.35;8.30;;;30.70;99.90;;;;;;4817696;29;20041;-92
2022/07/06 17:03:32;;;;;;;8.82;8.00;;;30.70;99.90;;;;;;4818691;29;20030;-91
2022/07/06 17:06:32;;;;;;;8.50;7.72;;;30.70;99.90;;;;;;4840816;29;20049;-92
2022/07/06 17:09:02;;;;;;;9.15;8.38;;;30.70;99.90;;;;;;4821267;29;20128;-92
2022/07/06 17:11:29;;;;;;;13.80;8.23;;;30.60;99.90;;;;;;4823758;29;20038;-91
2022/07/06 17:13:56;;;;;;;9.23;8.43;;;30.50;99.90;;;;;;4837514;29;20539;-94
2022/07/06 17:16:26;;;;;;;8.48;7.93;;;30.40;99.90;;;;;;4820571;29;20034;-92
2022/07/06 17:19:02;;;;;;;8.57;7.60;;;30.40;99.90;;;;;;4834599;29;20034;-93
2022/07/06 17:21:37;;;;;;;9.23;8.38;;;30.40;99.90;;;;;;4834383;29;20038;-93
2022/07/06 17:24:08;;;;;;;10.85;8.25;;;30.50;99.90;;;;;;4822488;29;20038;-93
2022/07/06 17:26:41;;;;;;;8.75;8.13;;;30.40;99.90;;;;;;4831923;29;20048;-92
2022/07/06 17:29:10;;;;;;;8.77;8.07;;;30.40;99.90;;;;;;4944131;24;20066;-93
2022/07/06 17:31:37;;;;;;;10.95;8.40;;;30.40;99.90;;;;;;4869651;29;20131;-93
2022/07/06 17:34:06;;;;;;;9.23;8.15;;;30.40;99.90;;;;;;4863669;29;20041;-92
2022/07/06 17:36:34;;;;;;;9.10;7.70;;;30.30;99.90;;;;;;4863260;29;20055;-93
2022/07/06 17:39:01;;;;;;;8.82;7.30;;;30.20;99.90;;;;;;4885933;29;20052;-90
2022/07/06 17:41:37;;;;;;;7.57;6.97;;;30.20;99.90;;;;;;4867514;29;20037;-92
2022/07/06 17:44:04;;;;;;;7.47;6.78;;;30.00;99.90;;;;;;4867053;29;20037;-93
2022/07/06 17:46:39;;;;;;;7.55;6.85;;;30.00;99.90;;;;;;4841898;29;20054;-92
2022/07/06 17:49:07;;;;;;;6.53;5.82;;;29.80;99.90;;;;;;4838282;29;20038;-92
2022/07/06 17:51:35;;;;;;;6.82;6.38;;;29.70;99.90;;;;;;4821880;29;20043;-93
2022/07/06 17:54:03;;;;;;;6.65;5.90;;;29.70;99.90;;;;;;4823166;29;20061;-92
2022/07/06 17:56:30;;;;;;;8.00;6.40;;;29.70;99.90;;;;;;4837993;29;20060;-92
2022/07/06 17:58:58;;;;;;;7.70;6.90;;;29.60;99.90;;;;;;4838828;29;20083;-92
2022/07/06 18:01:28;;;;;;;7.95;7.10;;;29.60;99.90;;;;;;4820323;29;20022;-92
2022/07/06 18:03:55;;;;;;;12.23;7.07;;;29.60;99.90;;;;;;4838495;29;20050;-94
2022/07/06 18:06:23;;;;;;;7.95;6.80;;;29.60;99.90;;;;;;4839748;29;20047;-94
2022/07/06 18:08:59;;;;;;;8.98;7.28;;;29.50;99.90;;;;;;4838548;29;20048;-92
2022/07/06 18:11:32;;;;;;;7.80;6.80;;;29.50;99.90;;;;;;4827964;29;20076;-92
2022/07/06 18:14:01;;;;;;;6.78;5.80;;;29.40;99.90;;;;;;4841676;29;20034;-91
2022/07/06 18:16:40;;;;;;;7.15;5.18;;;29.30;99.90;;;;;;4810831;29;20050;-94
2022/07/06 18:19:19;;;;;;;6.72;4.95;;;29.20;99.90;;;;;;4857196;23;20043;-93
2022/07/06 18:21:49;;;;;;;7.00;4.15;;;29.00;99.90;;;;;;5022513;24;20052;-92
2022/07/06 18:24:17;;;;;;;7.90;4.10;;;28.80;99.90;;;;;;4885097;29;20044;-93
2022/07/06 18:26:45;;;;;;;6.30;3.53;;;28.80;99.90;;;;;;4899293;29;20043;-93
2022/07/06 18:29:13;;;;;;;8.63;3.63;;;28.70;99.90;;;;;;4894581;29;20107;-94
2022/07/06 18:31:41;;;;;;;5.05;3.38;;;28.70;99.90;;;;;;4881533;29;20185;-92
2022/07/06 18:34:07;;;;;;;6.63;3.35;;;28.60;99.90;;;;;;4879882;29;20103;-92
2022/07/06 18:36:34;;;;;;;4.63;3.25;;;28.50;99.90;;;;;;4878031;29;20037;-92
2022/07/06 18:39:13;;;;;;;8.48;2.97;;;28.50;99.90;;;;;;4866459;29;20084;-94
2022/07/06 18:41:40;;;;;;;6.13;3.10;;;28.40;99.90;;;;;;4869547;29;20045;-93
2022/07/06 18:44:09;;;;;;;4.20;2.80;;;28.30;99.90;;;;;;4874359;29;20029;-93